createdAt,value
2023-04-06T00:00:11.934Z,4.17
2023-04-06T00:05:13.639Z,4.10
2023-04-06T00:10:17.012Z,4.10
2023-04-06T00:15:18.742Z,3.80
2023-04-06T00:20:20.499Z,3.87
2023-04-06T00:25:22.242Z,4.00
2023-04-06T00:30:23.987Z,3.90
2023-04-06T00:35:25.714Z,3.73
2023-04-06T00:40:29.454Z,4.07
2023-04-06T00:45:31.287Z,4.37
2023-04-06T00:50:33.091Z,3.30
2023-04-06T00:55:36.974Z,3.27
2023-04-06T01:00:39.340Z,3.10
2023-04-06T01:05:43.571Z,3.43
2023-04-06T01:10:53.577Z,3.53
2023-04-06T01:16:01.567Z,3.67
2023-04-06T01:21:17.396Z,3.57
2023-04-06T01:26:46.630Z,4.03
2023-04-06T01:31:48.663Z,3.57
2023-04-06T01:36:51.306Z,3.30
2023-04-06T01:42:02.820Z,4.00
2023-04-06T01:47:06.604Z,3.50
2023-04-06T01:52:08.734Z,3.67
2023-04-06T01:57:13.949Z,3.53
2023-04-06T02:02:26.697Z,3.77
2023-04-06T02:07:35.362Z,4.07
2023-04-06T02:12:37.261Z,3.70
2023-04-06T02:17:42.177Z,3.90
2023-04-06T02:22:45.532Z,3.80
2023-04-06T02:27:47.202Z,3.77
2023-04-06T02:32:49.039Z,3.77
2023-04-06T02:37:51.389Z,4.30
2023-04-06T02:42:53.098Z,3.90
2023-04-06T02:48:02.919Z,4.23
2023-04-06T02:53:07.357Z,3.80
2023-04-06T02:58:10.869Z,4.67
2023-04-06T03:03:23.162Z,4.03
2023-04-06T03:08:25.751Z,4.17
2023-04-06T03:13:27.512Z,4.23
2023-04-06T03:18:33.068Z,4.07
2023-04-06T03:23:34.857Z,4.17
2023-04-06T03:28:37.796Z,4.43
2023-04-06T03:33:41.828Z,3.50
2023-04-06T03:38:48.166Z,4.37
2023-04-06T03:43:50.916Z,4.60
2023-04-06T03:48:53.258Z,4.07
2023-04-06T03:53:57.127Z,3.93
2023-04-06T03:58:58.925Z,3.87
2023-04-06T04:04:01.220Z,3.77
2023-04-06T04:09:03.493Z,4.27
2023-04-06T04:14:05.282Z,3.90
2023-04-06T04:19:07.393Z,3.93
2023-04-06T04:24:09.228Z,4.23
2023-04-06T04:29:12.292Z,4.93
2023-04-06T04:34:15.983Z,4.10
2023-04-06T04:39:17.760Z,3.80
2023-04-06T04:44:24.885Z,4.43
2023-04-06T04:49:27.518Z,3.73
2023-04-06T04:54:30.714Z,4.10
2023-04-06T04:59:35.739Z,4.37
2023-04-06T05:04:46.457Z,4.37
2023-04-06T05:09:54.409Z,4.40
2023-04-06T05:15:00.469Z,4.27
2023-04-06T05:20:03.183Z,4.50
2023-04-06T05:25:09.999Z,4.67
2023-04-06T05:30:13.359Z,4.20
2023-04-06T05:35:19.480Z,4.43
2023-04-06T05:40:26.186Z,4.37
2023-04-06T05:45:28.515Z,4.80
2023-04-06T05:50:32.032Z,4.80
2023-04-06T05:55:34.316Z,4.60
2023-04-06T06:00:50.634Z,4.47
2023-04-06T06:06:00.805Z,4.30
2023-04-06T06:11:07.610Z,5.00
2023-04-06T06:16:09.626Z,5.57
2023-04-06T06:21:18.159Z,4.80
2023-04-06T06:26:20.637Z,4.93
2023-04-06T06:31:23.634Z,5.10
2023-04-06T06:36:26.696Z,5.47
2023-04-06T06:41:28.486Z,4.90
2023-04-06T06:46:30.611Z,4.93
2023-04-06T06:51:32.407Z,5.07
2023-04-06T06:56:34.176Z,5.90
2023-04-06T07:01:37.605Z,5.30
2023-04-06T07:06:39.765Z,5.50
2023-04-06T07:11:42.425Z,5.20
2023-04-06T07:16:46.177Z,5.13
2023-04-06T07:21:50.127Z,5.53
2023-04-06T07:26:51.854Z,5.33
2023-04-06T07:31:54.092Z,5.13
2023-04-06T07:36:57.653Z,5.17
2023-04-06T07:41:59.718Z,5.67
2023-04-06T07:47:02.033Z,4.93
2023-04-06T07:52:04.192Z,4.80
2023-04-06T07:57:07.497Z,5.07
2023-04-06T08:02:09.241Z,4.53
2023-04-06T08:07:10.946Z,5.20
2023-04-06T08:12:12.688Z,4.97
2023-04-06T08:17:14.416Z,5.00
2023-04-06T08:22:16.126Z,4.55
2023-04-06T08:27:18.218Z,4.53
2023-04-06T08:32:20.007Z,4.93
2023-04-06T08:37:22.331Z,4.38
2023-04-06T08:42:27.209Z,4.30
2023-04-06T08:47:29.149Z,4.07
2023-04-06T08:52:32.873Z,3.83
2023-04-06T08:57:36.677Z,3.80
2023-04-06T09:02:43.863Z,3.85
2023-04-06T09:07:46.273Z,3.30
2023-04-06T09:12:47.971Z,3.67
2023-04-06T09:17:49.864Z,3.90
2023-04-06T09:22:51.680Z,3.60
2023-04-06T09:28:01.416Z,4.32
2023-04-06T09:33:03.428Z,4.03
2023-04-06T09:38:11.987Z,3.50
2023-04-06T09:43:13.803Z,3.85
2023-04-06T09:48:16.202Z,3.72
2023-04-06T09:53:21.432Z,3.55
2023-04-06T09:58:27.240Z,3.40
2023-04-06T10:04:06.959Z,3.85
2023-04-06T10:09:09.527Z,3.75
2023-04-06T10:14:12.811Z,3.85
2023-04-06T10:19:21.932Z,3.63
2023-04-06T10:24:23.677Z,3.60
2023-04-06T10:29:25.425Z,3.25
2023-04-06T10:34:36.260Z,2.97
2023-04-06T10:39:47.135Z,2.95
2023-04-06T10:44:50.981Z,2.45
2023-04-06T10:49:52.761Z,3.00
2023-04-06T10:54:55.781Z,2.80
2023-04-06T10:59:57.467Z,2.60
2023-04-06T11:04:59.908Z,2.63
2023-04-06T11:10:15.066Z,3.13
2023-04-06T11:15:19.566Z,3.10
2023-04-06T11:20:21.413Z,3.17
2023-04-06T11:25:23.089Z,3.33
2023-04-06T11:30:24.873Z,2.80
2023-04-06T11:35:26.617Z,2.70
2023-04-06T11:40:30.416Z,2.90
2023-04-06T11:45:44.130Z,3.00
2023-04-06T11:50:48.545Z,3.13
2023-04-06T11:55:50.411Z,3.10
2023-04-06T12:00:52.156Z,3.72
2023-04-06T12:05:53.849Z,3.40
2023-04-06T12:10:55.545Z,3.20
2023-04-06T12:15:57.276Z,3.20
2023-04-06T12:20:58.977Z,3.40
2023-04-06T12:26:00.764Z,3.10
2023-04-06T12:31:02.593Z,3.47
2023-04-06T12:36:04.387Z,3.22
2023-04-06T12:41:06.116Z,3.70
2023-04-06T12:46:07.850Z,3.55
2023-04-06T12:51:09.572Z,3.70
2023-04-06T12:56:16.697Z,3.33
2023-04-06T13:01:18.764Z,3.40
2023-04-06T13:06:20.722Z,3.72
2023-04-06T13:11:26.905Z,3.47
2023-04-06T13:16:28.976Z,3.70
2023-04-06T13:21:31.532Z,3.70
2023-04-06T13:26:33.247Z,3.70
2023-04-06T13:31:34.938Z,3.35
2023-04-06T13:36:36.709Z,3.25
2023-04-06T13:41:38.476Z,3.40
2023-04-06T13:46:40.800Z,3.20
2023-04-06T13:51:43.118Z,3.85
2023-04-06T13:56:44.832Z,3.30
2023-04-06T14:01:46.685Z,3.15
2023-04-06T14:06:48.457Z,3.10
2023-04-06T14:11:51.051Z,3.33
2023-04-06T14:16:53.218Z,3.25
2023-04-06T14:21:55.529Z,3.60
2023-04-06T14:26:57.854Z,3.30
2023-04-06T14:32:01.159Z,3.10
2023-04-06T14:37:02.884Z,3.20
2023-04-06T14:42:04.669Z,3.10
2023-04-06T14:47:06.667Z,3.15
2023-04-06T14:52:08.484Z,2.90
2023-04-06T14:57:10.717Z,2.72
2023-04-06T15:02:12.402Z,3.50
2023-04-06T15:07:14.291Z,3.30
2023-04-06T15:12:15.905Z,3.30
2023-04-06T15:17:17.718Z,3.50
2023-04-06T15:22:19.312Z,3.30
2023-04-06T15:27:21.834Z,3.03
2023-04-06T15:32:23.917Z,2.83
2023-04-06T15:37:25.707Z,2.90
2023-04-06T15:42:27.422Z,2.83
2023-04-06T15:47:29.047Z,2.90
2023-04-06T15:52:30.819Z,3.03
2023-04-06T15:57:32.562Z,2.80
2023-04-06T16:02:34.398Z,3.00
2023-04-06T16:07:36.279Z,3.22
2023-04-06T16:12:38.291Z,2.72
2023-04-06T16:17:41.939Z,2.90
2023-04-06T16:22:43.641Z,2.97
2023-04-06T16:27:46.008Z,2.50
2023-04-06T16:32:51.682Z,2.75
2023-04-06T16:37:53.377Z,3.15
2023-04-06T16:42:55.455Z,2.92
2023-04-06T16:47:57.188Z,2.95
2023-04-06T16:52:58.985Z,2.97
2023-04-06T16:58:00.646Z,3.30
2023-04-06T17:03:02.932Z,3.13
2023-04-06T17:08:04.815Z,2.97
2023-04-06T17:13:06.840Z,3.40
2023-04-06T17:18:08.697Z,3.28
2023-04-06T17:23:10.365Z,3.03
2023-04-06T17:28:12.046Z,3.05
2023-04-06T17:33:13.758Z,3.30
2023-04-06T17:38:15.542Z,3.20
2023-04-06T17:43:17.164Z,2.60
2023-04-06T17:48:23.121Z,2.97
2023-04-06T17:53:30.532Z,3.28
2023-04-06T17:58:32.359Z,2.50
2023-04-06T18:03:34.333Z,3.30
2023-04-06T18:08:36.114Z,3.40
2023-04-06T18:13:39.436Z,3.35
2023-04-06T18:18:42.200Z,3.60
2023-04-06T18:23:43.972Z,3.60
2023-04-06T18:28:46.681Z,3.47
2023-04-06T18:33:48.403Z,3.38
2023-04-06T18:38:50.194Z,3.22
2023-04-06T18:43:52.117Z,3.20
2023-04-06T18:48:53.887Z,3.25
2023-04-06T18:53:56.355Z,3.05
2023-04-06T18:58:58.319Z,3.55
2023-04-06T19:04:00.849Z,3.00
2023-04-06T19:09:04.883Z,3.33
2023-04-06T19:14:06.603Z,3.88
2023-04-06T19:19:08.419Z,3.53
2023-04-06T19:24:12.116Z,4.00
2023-04-06T19:29:13.855Z,4.25
2023-04-06T19:34:17.688Z,4.60
2023-04-06T19:39:19.549Z,4.57
2023-04-06T19:44:21.324Z,4.85
2023-04-06T19:49:23.383Z,4.78
2023-04-06T19:54:26.542Z,4.97
2023-04-06T19:59:28.540Z,5.22
2023-04-06T20:04:30.444Z,5.40
2023-04-06T20:09:32.229Z,6.80
2023-04-06T20:14:34.292Z,7.25
2023-04-06T20:19:36.025Z,7.07
2023-04-06T20:24:37.615Z,8.52
2023-04-06T20:29:40.318Z,6.50
2023-04-06T20:34:41.928Z,6.65
2023-04-06T20:39:43.602Z,5.95
2023-04-06T20:44:45.388Z,6.28
2023-04-06T20:49:47.045Z,7.43
2023-04-06T20:54:50.607Z,7.03
2023-04-06T20:59:52.289Z,6.60
2023-04-06T21:04:53.958Z,6.75
2023-04-06T21:09:56.459Z,6.80
2023-04-06T21:14:58.058Z,6.18
2023-04-06T21:19:59.723Z,6.30
2023-04-06T21:25:01.408Z,6.07
2023-04-06T21:30:03.751Z,7.07
2023-04-06T21:35:05.818Z,6.80
2023-04-06T21:40:08.165Z,6.72
2023-04-06T21:45:10.217Z,6.50
2023-04-06T21:50:11.885Z,7.30
2023-04-06T21:55:13.510Z,7.10
2023-04-06T22:00:16.405Z,7.63
2023-04-06T22:05:18.303Z,7.07
2023-04-06T22:10:20.088Z,7.57
2023-04-06T22:15:21.823Z,7.53
2023-04-06T22:20:23.428Z,7.95
2023-04-06T22:25:25.041Z,8.48
2023-04-06T22:30:26.664Z,9.07
2023-04-06T22:35:28.267Z,8.73
2023-04-06T22:40:29.959Z,9.07
2023-04-06T22:45:31.825Z,8.90
2023-04-06T22:50:33.549Z,9.07
2023-04-06T22:55:35.359Z,9.52
2023-04-06T23:00:36.952Z,8.73
2023-04-06T23:05:38.681Z,8.63
2023-04-06T23:10:42.064Z,8.33
2023-04-06T23:15:43.972Z,8.82
2023-04-06T23:20:45.954Z,7.93
2023-04-06T23:25:47.624Z,8.15
2023-04-06T23:30:49.212Z,8.55
2023-04-06T23:35:52.179Z,8.13
2023-04-06T23:40:54.210Z,7.53
2023-04-06T23:45:56.042Z,8.15
2023-04-06T23:50:57.680Z,8.00
2023-04-06T23:55:59.305Z,7.50
